Time;durP1;ratioP1;P1;durP2;ratioP2;P2;SDS_P1;SDS_P2;PMS_P1;PMS_P2;Temp;Humidity;BMP_temperature;BMP_pressure;BME280_temperature;BME280_humidity;BME280_pressure;Samples;Min_cycle;Max_cycle;Signal;HPM_P1;HPM_P2
2023/06/18 00:00:11;;;;;;;6.80;5.53;;;15.90;99.90;;;;;;5073548;28;20207;-82
2023/06/18 00:02:36;;;;;;;6.00;5.37;;;15.90;99.90;;;;;;5054721;28;20193;-82
2023/06/18 00:05:02;;;;;;;6.97;5.50;;;16.00;99.90;;;;;;5072527;28;20184;-82
2023/06/18 00:07:27;;;;;;;6.23;5.63;;;16.20;99.90;;;;;;5054952;28;20173;-81
2023/06/18 00:09:53;;;;;;;6.17;5.53;;;16.30;30.70;;;;;;5054444;28;20288;-82
2023/06/18 00:12:18;;;;;;;6.67;5.50;;;16.40;1.00;;;;;;5055160;28;20173;-82
2023/06/18 00:14:44;;;;;;;5.93;5.40;;;16.50;1.00;;;;;;5072770;28;20201;-82
2023/06/18 00:17:10;;;;;;;6.27;5.43;;;16.40;1.00;;;;;;5072643;28;20169;-82
2023/06/18 00:19:36;;;;;;;6.80;5.23;;;16.20;1.00;;;;;;5072485;28;20161;-79
2023/06/18 00:22:02;;;;;;;5.80;4.97;;;16.20;1.00;;;;;;5054699;28;20180;-82
2023/06/18 00:24:28;;;;;;;6.57;5.43;;;16.00;34.30;;;;;;5055901;28;20173;-82
2023/06/18 00:26:53;;;;;;;6.40;5.70;;;15.90;99.90;;;;;;5058451;28;20226;-81
2023/06/18 00:29:20;;;;;;;6.23;5.63;;;15.70;99.90;;;;;;5058248;28;20177;-82
2023/06/18 00:31:45;;;;;;;6.13;5.53;;;15.50;99.90;;;;;;5075521;28;20215;-82
2023/06/18 00:34:14;;;;;;;6.07;5.47;;;15.60;99.90;;;;;;5058435;28;20181;-83
2023/06/18 00:36:43;;;;;;;6.30;5.57;;;15.60;99.90;;;;;;5076409;28;20177;-82
2023/06/18 00:39:09;;;;;;;6.30;5.70;;;15.50;1.00;;;;;;5058072;28;20306;-82
2023/06/18 00:41:35;;;;;;;5.87;5.27;;;15.40;1.00;;;;;;5058049;28;20264;-82
2023/06/18 00:44:01;;;;;;;6.73;5.67;;;15.40;1.00;;;;;;5075702;28;20165;-82
2023/06/18 00:46:30;;;;;;;6.60;5.90;;;15.50;1.00;;;;;;5058239;28;20631;-82
2023/06/18 00:48:57;;;;;;;6.63;5.93;;;15.60;1.00;;;;;;5075927;28;20173;-81
2023/06/18 00:51:26;;;;;;;6.63;6.03;;;15.70;1.00;;;;;;5057805;28;20192;-82
2023/06/18 00:53:52;;;;;;;7.17;5.97;;;15.70;1.00;;;;;;5076114;28;20180;-81
2023/06/18 00:56:18;;;;;;;6.60;6.00;;;15.60;1.00;;;;;;5075786;28;20235;-82
2023/06/18 00:58:47;;;;;;;6.27;5.67;;;15.40;1.00;;;;;;5076074;28;20226;-81
2023/06/18 01:01:14;;;;;;;7.10;5.70;;;15.20;1.00;;;;;;5075402;28;20234;-81
2023/06/18 01:03:41;;;;;;;5.90;4.97;;;15.10;24.50;;;;;;5057702;28;20222;-82
2023/06/18 01:06:11;;;;;;;6.43;5.70;;;15.00;99.90;;;;;;5075730;28;20173;-84
2023/06/18 01:08:38;;;;;;;6.87;5.70;;;14.80;99.90;;;;;;5057639;28;20307;-84
2023/06/18 01:11:05;;;;;;;6.23;5.63;;;14.90;99.90;;;;;;5057559;28;20578;-81
2023/06/18 01:13:36;;;;;;;6.80;6.10;;;15.10;99.90;;;;;;5057285;28;20180;-84
2023/06/18 01:16:05;;;;;;;6.40;5.53;;;15.40;1.00;;;;;;5057115;28;20208;-81
2023/06/18 01:18:35;;;;;;;6.97;6.30;;;15.60;1.00;;;;;;5075588;28;20165;-81
2023/06/18 01:21:12;;;;;;;6.83;6.00;;;15.70;99.90;;;;;;5075203;28;20204;-82
2023/06/18 01:24:10;;;;;;;6.50;5.73;;;15.80;99.90;;;;;;5075202;28;20173;-82
2023/06/18 01:26:36;;;;;;;6.20;5.60;;;15.40;99.90;;;;;;5057216;28;20173;-82
2023/06/18 01:29:02;;;;;;;5.77;5.13;;;15.00;1.00;;;;;;5057383;28;20183;-81
2023/06/18 01:31:36;;;;;;;6.57;5.97;;;14.90;1.00;;;;;;5074903;28;20196;-82
2023/06/18 01:34:04;;;;;;;6.00;5.40;;;15.00;99.90;;;;;;5075180;28;20207;-82
2023/06/18 01:36:35;;;;;;;6.47;5.77;;;14.80;99.90;;;;;;5057015;28;20181;-82
2023/06/18 01:39:16;;;;;;;6.20;5.57;;;14.70;99.90;;;;;;5057005;28;20169;-82
2023/06/18 01:41:44;;;;;;;6.77;5.87;;;14.90;99.90;;;;;;5056813;28;20197;-82
2023/06/18 01:44:13;;;;;;;6.57;5.87;;;15.00;92.80;;;;;;5075099;28;20181;-82
2023/06/18 01:46:41;;;;;;;7.10;6.40;;;15.10;1.00;;;;;;5057040;28;20177;-82
2023/06/18 01:49:08;;;;;;;7.20;6.33;;;15.00;1.00;;;;;;5056631;28;20629;-82
2023/06/18 01:51:36;;;;;;;6.60;5.77;;;14.90;1.00;;;;;;5056216;28;20223;-81
2023/06/18 01:54:03;;;;;;;6.73;6.10;;;14.90;1.00;;;;;;5074566;28;20303;-82
2023/06/18 01:56:29;;;;;;;6.80;6.10;;;14.70;1.00;;;;;;5075075;28;20173;-82
2023/06/18 01:58:56;;;;;;;6.50;5.80;;;14.60;99.90;;;;;;5056898;28;20169;-81
2023/06/18 02:01:22;;;;;;;6.93;6.23;;;14.70;99.90;;;;;;5074416;28;20212;-81
2023/06/18 02:03:48;;;;;;;6.77;6.10;;;14.70;7.90;;;;;;5056501;28;20184;-82
2023/06/18 02:06:14;;;;;;;6.60;6.00;;;14.80;99.90;;;;;;5074119;28;20181;-82
2023/06/18 02:08:40;;;;;;;6.37;5.73;;;14.60;99.90;;;;;;5056625;28;20176;-82
2023/06/18 02:11:06;;;;;;;7.13;6.20;;;14.50;1.00;;;;;;5056251;28;20201;-81
2023/06/18 02:13:31;;;;;;;7.23;6.50;;;14.50;1.00;;;;;;5056288;28;20169;-81
2023/06/18 02:15:57;;;;;;;8.17;6.13;;;14.40;1.00;;;;;;5074544;28;20201;-81
2023/06/18 02:18:22;;;;;;;6.50;5.90;;;14.30;1.00;;;;;;5038230;28;20235;-81
2023/06/18 02:20:48;;;;;;;8.23;6.63;;;14.20;1.00;;;;;;5034941;28;20225;-81
2023/06/18 02:23:13;;;;;;;6.50;5.87;;;14.30;1.00;;;;;;5034697;28;20201;-82
2023/06/18 02:25:39;;;;;;;7.03;5.70;;;14.20;1.00;;;;;;5016639;28;20272;-81
2023/06/18 02:28:06;;;;;;;6.47;5.80;;;14.10;99.90;;;;;;5016504;28;20183;-81
2023/06/18 02:30:33;;;;;;;10.70;5.83;;;14.30;1.00;;;;;;5034121;28;20221;-81
2023/06/18 02:33:10;;;;;;;6.70;6.03;;;14.40;1.00;;;;;;5017064;28;20178;-81
2023/06/18 02:35:36;;;;;;;6.90;6.20;;;14.50;99.90;;;;;;5034304;28;20205;-81
2023/06/18 02:38:02;;;;;;;6.50;5.90;;;14.60;99.90;;;;;;5034191;28;20175;-81
2023/06/18 02:40:27;;;;;;;7.33;6.37;;;14.40;1.00;;;;;;5016662;28;20577;-81
2023/06/18 02:42:54;;;;;;;6.67;6.07;;;14.40;1.00;;;;;;5034793;28;20178;-82
2023/06/18 02:45:22;;;;;;;6.43;5.80;;;14.40;99.90;;;;;;5052345;28;20192;-81
2023/06/18 02:47:49;;;;;;;8.33;6.40;;;14.20;1.00;;;;;;5043702;28;20174;-81
2023/06/18 02:50:16;;;;;;;7.33;6.03;;;14.00;1.00;;;;;;5053624;28;20189;-82
2023/06/18 02:52:43;;;;;;;7.07;6.37;;;13.80;60.60;;;;;;5035543;28;20629;-81
2023/06/18 02:55:09;;;;;;;6.73;6.00;;;13.80;99.90;;;;;;5035623;28;20274;-81
2023/06/18 02:57:36;;;;;;;7.37;6.67;;;13.90;99.90;;;;;;5035777;28;20202;-81
2023/06/18 03:00:09;;;;;;;7.30;6.60;;;13.80;1.00;;;;;;5053155;28;20693;-81
2023/06/18 03:02:35;;;;;;;6.80;6.20;;;13.70;99.90;;;;;;5053552;28;20193;-81
2023/06/18 03:05:01;;;;;;;6.87;6.23;;;13.60;99.90;;;;;;5053401;28;20208;-81
2023/06/18 03:07:27;;;;;;;7.20;6.10;;;13.60;99.90;;;;;;5053527;28;20186;-81
2023/06/18 03:09:53;;;;;;;7.10;6.27;;;13.60;1.00;;;;;;5035252;28;20197;-81
2023/06/18 03:12:18;;;;;;;7.30;6.53;;;13.60;1.00;;;;;;5053514;28;20192;-81
2023/06/18 03:14:44;;;;;;;7.17;6.47;;;13.50;99.90;;;;;;5053158;28;20200;-81
2023/06/18 03:17:10;;;;;;;6.90;6.20;;;13.50;99.90;;;;;;5035312;28;20181;-82
2023/06/18 03:19:35;;;;;;;7.27;6.20;;;13.40;1.00;;;;;;5052982;28;20201;-80
2023/06/18 03:22:03;;;;;;;6.80;6.10;;;13.50;99.90;;;;;;5052282;28;20176;-81
2023/06/18 03:24:29;;;;;;;7.83;6.77;;;13.50;99.90;;;;;;5053209;28;20636;-81
2023/06/18 03:26:57;;;;;;;7.87;5.83;;;13.40;99.90;;;;;;5035598;28;20185;-81
2023/06/18 03:29:25;;;;;;;7.20;5.97;;;13.30;1.00;;;;;;5035039;28;20174;-81
2023/06/18 03:31:51;;;;;;;7.20;6.50;;;13.40;99.90;;;;;;5035257;28;20197;-83
2023/06/18 03:34:16;;;;;;;7.37;6.60;;;13.50;99.90;;;;;;5035503;28;20180;-81
2023/06/18 03:36:43;;;;;;;7.23;5.97;;;13.50;99.90;;;;;;5035816;28;20177;-81
2023/06/18 03:39:09;;;;;;;6.80;6.10;;;13.50;99.90;;;;;;5052469;28;20195;-83
2023/06/18 03:41:35;;;;;;;6.93;6.33;;;13.60;1.00;;;;;;5034740;28;20193;-81
2023/06/18 03:44:02;;;;;;;8.93;6.40;;;13.60;99.90;;;;;;5054243;28;20170;-81
2023/06/18 03:46:28;;;;;;;8.10;6.53;;;13.70;99.90;;;;;;5054692;28;20566;-81
2023/06/18 03:48:55;;;;;;;6.90;5.97;;;13.50;99.90;;;;;;5055109;28;20184;-81
2023/06/18 03:51:20;;;;;;;6.90;6.27;;;13.50;1.00;;;;;;5055143;28;20199;-81
2023/06/18 03:53:46;;;;;;;7.40;6.13;;;13.50;84.40;;;;;;5055203;28;20177;-81
2023/06/18 03:56:11;;;;;;;7.57;6.17;;;13.60;1.00;;;;;;5055141;28;20197;-83
2023/06/18 03:58:37;;;;;;;7.73;6.40;;;13.50;1.00;;;;;;5073197;28;20184;-81
2023/06/18 04:01:03;;;;;;;7.60;6.67;;;13.60;99.90;;;;;;5058437;28;20238;-81
2023/06/18 04:03:29;;;;;;;7.27;6.43;;;13.70;1.00;;;;;;5059315;28;20176;-81
2023/06/18 04:05:54;;;;;;;6.90;6.20;;;13.60;1.00;;;;;;5077071;28;20215;-81
2023/06/18 04:08:20;;;;;;;6.70;6.00;;;13.60;99.90;;;;;;5076812;28;20188;-83
2023/06/18 04:10:47;;;;;;;6.93;6.10;;;13.70;1.00;;;;;;5076676;28;20246;-80
2023/06/18 04:13:16;;;;;;;6.97;6.27;;;13.50;1.00;;;;;;5076840;28;20639;-81
2023/06/18 04:15:43;;;;;;;7.53;6.23;;;13.50;99.90;;;;;;5076741;28;20204;-81
2023/06/18 04:18:08;;;;;;;7.00;6.30;;;13.50;1.00;;;;;;5077061;28;20177;-81
2023/06/18 04:20:34;;;;;;;8.40;6.90;;;13.60;99.90;;;;;;5076599;28;20242;-81
2023/06/18 04:23:00;;;;;;;8.23;6.67;;;13.60;1.00;;;;;;5076679;28;20223;-81
2023/06/18 04:25:25;;;;;;;8.87;6.47;;;13.70;99.90;;;;;;5058691;28;20660;-81
2023/06/18 04:27:51;;;;;;;7.60;6.80;;;13.60;1.00;;;;;;5076896;28;20702;-82
2023/06/18 04:30:17;;;;;;;7.23;6.50;;;13.70;1.00;;;;;;5058418;28;20576;-81
2023/06/18 04:32:43;;;;;;;7.17;6.47;;;13.80;1.00;;;;;;5076673;28;20181;-83
2023/06/18 04:35:08;;;;;;;7.70;6.87;;;13.80;1.00;;;;;;5076477;28;20240;-81
2023/06/18 04:37:35;;;;;;;7.60;6.40;;;13.90;1.00;;;;;;5076827;28;20178;-81
2023/06/18 04:40:01;;;;;;;7.27;6.57;;;13.90;1.00;;;;;;5058470;28;20188;-81
2023/06/18 04:42:26;;;;;;;8.47;7.30;;;13.80;99.90;;;;;;5076549;28;20195;-81
2023/06/18 04:44:52;;;;;;;7.93;7.13;;;13.80;92.60;;;;;;5076606;28;20184;-81
2023/06/18 04:47:17;;;;;;;7.27;6.50;;;13.90;1.00;;;;;;5058513;28;20173;-82
2023/06/18 04:49:44;;;;;;;8.43;6.63;;;14.00;1.00;;;;;;5058100;28;20177;-81
2023/06/18 04:52:10;;;;;;;7.70;6.93;;;14.00;42.30;;;;;;5058357;28;20180;-81
2023/06/18 04:54:36;;;;;;;8.00;7.20;;;14.00;99.90;;;;;;5075945;28;20225;-83
2023/06/18 04:57:01;;;;;;;8.03;7.23;;;14.20;1.00;;;;;;5076250;28;20165;-81
2023/06/18 04:59:27;;;;;;;7.53;6.83;;;14.20;1.00;;;;;;5076383;28;20260;-81
2023/06/18 05:01:53;;;;;;;7.30;6.60;;;14.20;1.00;;;;;;5057715;28;20204;-81
2023/06/18 05:04:19;;;;;;;8.27;7.30;;;14.20;99.90;;;;;;5058200;28;20165;-80
2023/06/18 05:06:44;;;;;;;8.43;7.50;;;14.30;1.00;;;;;;5057580;28;20665;-81
2023/06/18 05:09:10;;;;;;;7.83;7.07;;;14.30;30.00;;;;;;5058755;28;20255;-81
2023/06/18 05:11:35;;;;;;;7.87;7.10;;;14.50;1.00;;;;;;5060160;28;20205;-78
2023/06/18 05:14:01;;;;;;;8.40;7.23;;;14.50;99.90;;;;;;5079160;28;20176;-81
2023/06/18 05:16:27;;;;;;;9.10;7.93;;;14.60;99.90;;;;;;5060804;28;20212;-80
2023/06/18 05:18:53;;;;;;;8.60;7.70;;;14.70;1.00;;;;;;5060266;28;20169;-81
2023/06/18 05:21:18;;;;;;;9.17;7.40;;;14.80;1.00;;;;;;5060643;28;20189;-81
2023/06/18 05:23:44;;;;;;;7.87;7.07;;;14.90;1.00;;;;;;5060072;28;20238;-81
2023/06/18 05:26:10;;;;;;;8.30;7.40;;;15.00;1.00;;;;;;5059318;28;20204;-82
2023/06/18 05:28:36;;;;;;;8.13;7.33;;;15.10;1.00;;;;;;5060802;28;20184;-82
2023/06/18 05:31:01;;;;;;;8.20;7.37;;;15.10;1.00;;;;;;5078262;28;20196;-82
2023/06/18 05:33:27;;;;;;;8.60;7.70;;;15.20;99.90;;;;;;5077580;28;20569;-80
2023/06/18 05:35:52;;;;;;;10.07;8.20;;;15.20;1.00;;;;;;5057433;28;20821;-80
2023/06/18 05:38:18;;;;;;;8.97;8.07;;;15.30;99.90;;;;;;5056980;28;20165;-82
2023/06/18 05:40:44;;;;;;;9.07;7.37;;;15.40;99.90;;;;;;5078049;28;20227;-81
2023/06/18 05:43:09;;;;;;;8.87;7.97;;;15.40;1.00;;;;;;5076871;28;20173;-82
2023/06/18 05:45:35;;;;;;;10.00;8.87;;;15.50;99.40;;;;;;5060553;28;20199;-81
2023/06/18 05:48:00;;;;;;;9.10;7.90;;;15.50;1.00;;;;;;5077964;28;20177;-82
2023/06/18 05:50:27;;;;;;;9.10;8.20;;;15.50;99.90;;;;;;5058705;28;20197;-81
2023/06/18 05:52:53;;;;;;;8.83;7.87;;;15.60;1.00;;;;;;5077677;28;20667;-81
2023/06/18 05:55:18;;;;;;;8.87;7.97;;;15.70;99.90;;;;;;5058483;28;20200;-83
2023/06/18 05:57:44;;;;;;;8.27;7.47;;;15.80;1.00;;;;;;5058930;28;20173;-82
2023/06/18 06:00:11;;;;;;;9.43;7.70;;;15.80;99.90;;;;;;5058578;28;20219;-83
2023/06/18 06:02:37;;;;;;;9.27;7.83;;;15.90;1.00;;;;;;5056853;28;20199;-81
2023/06/18 06:05:02;;;;;;;8.40;7.60;;;16.00;99.90;;;;;;5074626;28;20185;-82
2023/06/18 06:07:28;;;;;;;8.57;7.73;;;16.10;1.00;;;;;;5074737;28;20607;-81
2023/06/18 06:09:55;;;;;;;8.40;7.60;;;16.30;1.00;;;;;;5057129;28;20228;-80
2023/06/18 06:12:21;;;;;;;9.03;7.53;;;16.40;1.00;;;;;;5074062;28;20256;-81
2023/06/18 06:14:47;;;;;;;9.43;8.47;;;16.60;99.90;;;;;;5056435;28;20205;-83
2023/06/18 06:17:13;;;;;;;9.23;8.33;;;16.70;1.00;;;;;;5074421;28;20264;-80
2023/06/18 06:19:38;;;;;;;9.10;8.20;;;16.80;1.00;;;;;;5074274;28;20169;-82
2023/06/18 06:22:04;;;;;;;10.43;8.23;;;16.90;99.90;;;;;;5073311;28;20195;-82
2023/06/18 06:24:30;;;;;;;8.57;7.77;;;17.00;99.90;;;;;;5056812;28;20173;-84
2023/06/18 06:26:56;;;;;;;9.17;7.80;;;17.10;99.90;;;;;;5057433;28;20169;-82
2023/06/18 06:29:21;;;;;;;8.53;7.63;;;17.20;99.90;;;;;;5057196;28;20169;-81
2023/06/18 06:31:47;;;;;;;8.57;7.57;;;17.30;99.90;;;;;;5075011;28;20197;-81
2023/06/18 06:34:12;;;;;;;8.43;7.63;;;17.40;1.00;;;;;;5056516;28;20208;-81
2023/06/18 06:36:38;;;;;;;8.90;7.77;;;17.50;99.90;;;;;;5056969;28;20177;-81
2023/06/18 06:39:04;;;;;;;8.00;7.23;;;17.70;99.90;;;;;;5056646;28;20237;-81
2023/06/18 06:41:29;;;;;;;7.90;7.10;;;17.80;1.00;;;;;;5073635;28;20258;-82
2023/06/18 06:43:55;;;;;;;8.00;7.20;;;18.00;99.90;;;;;;5057178;28;20636;-82
2023/06/18 06:46:20;;;;;;;8.17;7.10;;;18.10;1.00;;;;;;5056625;28;20534;-82
2023/06/18 06:48:46;;;;;;;8.13;7.00;;;18.20;99.90;;;;;;5056758;28;20199;-84
2023/06/18 06:51:12;;;;;;;9.13;7.40;;;18.30;1.00;;;;;;5073721;28;20250;-81
2023/06/18 06:53:38;;;;;;;8.43;7.57;;;18.30;1.00;;;;;;5056654;28;20180;-82
2023/06/18 06:56:03;;;;;;;8.90;7.43;;;18.50;53.80;;;;;;5073539;28;20216;-81
2023/06/18 06:58:30;;;;;;;8.93;8.10;;;18.60;99.90;;;;;;5073215;28;20195;-83
2023/06/18 07:00:55;;;;;;;9.00;8.10;;;18.70;73.90;;;;;;5072677;28;20204;-81
2023/06/18 07:03:21;;;;;;;8.30;7.40;;;18.80;99.90;;;;;;5055680;28;20225;-84
2023/06/18 07:05:46;;;;;;;8.40;7.33;;;18.90;1.00;;;;;;5055520;28;20181;-82
2023/06/18 07:08:12;;;;;;;8.40;7.50;;;19.00;99.90;;;;;;5055433;28;20178;-82
2023/06/18 07:10:37;;;;;;;9.03;7.70;;;19.10;99.90;;;;;;5054892;28;20258;-83
2023/06/18 07:13:04;;;;;;;8.07;7.27;;;19.20;99.90;;;;;;5054835;28;20188;-83
2023/06/18 07:15:30;;;;;;;7.50;6.80;;;19.30;1.00;;;;;;5075660;28;20197;-83
2023/06/18 07:17:56;;;;;;;8.53;7.50;;;19.40;1.00;;;;;;5044700;28;20189;-82
2023/06/18 07:20:21;;;;;;;7.87;7.07;;;19.50;1.00;;;;;;5033839;28;20193;-82
2023/06/18 07:22:47;;;;;;;7.87;7.17;;;19.70;1.00;;;;;;5056050;28;20235;-81
2023/06/18 07:25:13;;;;;;;8.43;7.30;;;19.80;1.00;;;;;;5037246;28;20227;-82
2023/06/18 07:27:38;;;;;;;8.03;7.23;;;19.90;99.90;;;;;;5036456;28;20184;-81
2023/06/18 07:30:04;;;;;;;8.00;7.20;;;20.00;99.90;;;;;;5055767;28;20239;-85
2023/06/18 07:32:30;;;;;;;7.53;6.73;;;20.20;99.90;;;;;;5053154;28;20724;-83
2023/06/18 07:34:55;;;;;;;7.80;7.00;;;20.40;99.90;;;;;;5054392;28;20247;-81
2023/06/18 07:37:21;;;;;;;9.37;7.20;;;20.50;99.90;;;;;;5056841;28;20706;-81
2023/06/18 07:39:47;;;;;;;9.17;7.10;;;20.60;1.00;;;;;;5056118;28;20181;-81
2023/06/18 07:42:12;;;;;;;8.23;6.95;;;20.70;1.00;;;;;;5056287;28;20200;-83
2023/06/18 07:44:38;;;;;;;7.75;7.05;;;20.90;1.00;;;;;;5052969;28;20174;-80
2023/06/18 07:47:03;;;;;;;9.38;7.32;;;21.00;1.00;;;;;;5053063;28;20637;-77
2023/06/18 07:49:29;;;;;;;8.60;6.90;;;21.20;1.00;;;;;;5051333;28;20216;-83
2023/06/18 07:51:55;;;;;;;7.55;6.57;;;21.50;1.00;;;;;;5050985;28;20201;-83
2023/06/18 07:54:21;;;;;;;6.80;6.15;;;21.70;1.00;;;;;;5041055;28;20180;-82
2023/06/18 07:56:47;;;;;;;7.68;6.97;;;21.90;99.90;;;;;;5047993;28;20314;-82
2023/06/18 07:59:12;;;;;;;7.57;6.30;;;22.00;99.90;;;;;;5054118;28;20260;-82
2023/06/18 08:01:38;;;;;;;7.25;6.55;;;22.20;99.90;;;;;;5073507;28;20208;-82
2023/06/18 08:04:04;;;;;;;7.38;6.57;;;22.40;99.90;;;;;;5054289;28;20286;-82
2023/06/18 08:06:30;;;;;;;7.63;6.20;;;22.50;99.90;;;;;;5072942;28;20180;-83
2023/06/18 08:08:55;;;;;;;7.25;6.55;;;22.60;5.70;;;;;;5055481;28;20657;-82
2023/06/18 08:11:21;;;;;;;7.13;6.40;;;22.70;99.90;;;;;;5073383;28;20239;-81
2023/06/18 08:13:47;;;;;;;7.47;6.78;;;22.90;76.10;;;;;;5074076;28;20176;-82
2023/06/18 08:16:12;;;;;;;7.10;6.40;;;23.00;1.00;;;;;;5056926;28;20208;-82
2023/06/18 08:18:38;;;;;;;7.00;6.30;;;23.20;1.00;;;;;;5056880;28;20196;-82
2023/06/18 08:21:04;;;;;;;7.68;6.30;;;23.30;1.00;;;;;;5056673;28;20189;-81
2023/06/18 08:23:30;;;;;;;9.00;6.55;;;23.40;1.00;;;;;;5074120;28;20165;-80
2023/06/18 08:25:55;;;;;;;8.57;7.07;;;23.70;1.00;;;;;;5071716;28;20180;-80
2023/06/18 08:28:21;;;;;;;9.40;6.60;;;23.80;1.00;;;;;;5053943;28;20173;-80
2023/06/18 08:30:47;;;;;;;11.13;7.25;;;24.00;1.00;;;;;;5071265;28;20623;-79
2023/06/18 08:33:12;;;;;;;7.35;6.45;;;24.20;1.00;;;;;;5053734;28;20184;-80
2023/06/18 08:35:38;;;;;;;7.78;6.50;;;24.50;1.00;;;;;;5072136;28;20197;-82
2023/06/18 08:38:04;;;;;;;6.55;5.65;;;24.60;1.00;;;;;;5054113;28;20314;-83
2023/06/18 08:40:37;;;;;;;6.97;6.15;;;24.60;99.90;;;;;;5039654;28;20243;-83
2023/06/18 08:43:04;;;;;;;6.78;6.15;;;24.70;99.90;;;;;;5051624;28;20173;-83
2023/06/18 08:45:30;;;;;;;5.72;5.22;;;24.80;99.90;;;;;;5041699;28;20170;-83
2023/06/18 08:47:58;;;;;;;6.95;6.25;;;25.00;99.90;;;;;;5036318;28;20174;-84
2023/06/18 08:50:27;;;;;;;7.72;6.47;;;25.10;99.90;;;;;;5048677;28;20570;-85
2023/06/18 08:52:59;;;;;;;6.78;6.18;;;25.20;99.90;;;;;;5060920;28;20169;-84
2023/06/18 08:55:26;;;;;;;6.55;5.95;;;25.20;99.90;;;;;;5037267;28;20204;-84
2023/06/18 08:57:58;;;;;;;6.18;5.60;;;25.20;99.90;;;;;;5033542;28;20554;-84
2023/06/18 09:00:24;;;;;;;6.30;5.70;;;25.50;99.90;;;;;;5054127;28;20255;-85
2023/06/18 09:02:51;;;;;;;6.00;5.40;;;25.70;99.90;;;;;;5045259;28;20166;-84
2023/06/18 09:05:18;;;;;;;6.53;5.93;;;25.80;99.90;;;;;;5036685;28;20547;-84
2023/06/18 09:07:44;;;;;;;6.63;5.32;;;26.00;99.90;;;;;;5037071;28;20188;-85
2023/06/18 09:10:10;;;;;;;6.10;5.60;;;26.10;99.90;;;;;;5054766;28;20285;-84
2023/06/18 09:12:36;;;;;;;7.63;5.57;;;26.30;99.90;;;;;;5053311;28;20268;-84
2023/06/18 09:15:02;;;;;;;6.57;5.70;;;26.30;99.90;;;;;;5054548;28;20578;-84
2023/06/18 09:17:28;;;;;;;6.28;5.57;;;26.30;99.90;;;;;;5049399;28;20265;-83
2023/06/18 09:19:54;;;;;;;5.95;5.38;;;26.20;99.90;;;;;;5056231;28;20277;-84
2023/06/18 09:22:20;;;;;;;6.82;5.80;;;26.20;99.90;;;;;;5054220;28;20639;-84
2023/06/18 09:24:46;;;;;;;5.85;5.35;;;26.20;99.90;;;;;;5074495;28;20180;-84
2023/06/18 09:27:12;;;;;;;6.63;5.50;;;26.30;99.90;;;;;;5074564;28;20173;-84
2023/06/18 09:29:40;;;;;;;6.05;5.45;;;26.40;99.90;;;;;;5074073;28;20199;-84
2023/06/18 09:32:14;;;;;;;6.32;5.22;;;26.50;99.90;;;;;;5073988;28;20173;-84
2023/06/18 09:34:40;;;;;;;6.82;5.35;;;26.60;99.90;;;;;;5055121;28;20200;-83
2023/06/18 09:37:07;;;;;;;5.85;5.32;;;26.70;99.90;;;;;;5035834;28;20224;-84
2023/06/18 09:39:35;;;;;;;5.95;5.35;;;26.70;99.90;;;;;;5061527;28;20224;-83
2023/06/18 09:42:09;;;;;;;5.18;4.78;;;26.90;99.90;;;;;;5035332;28;20174;-83
2023/06/18 09:44:35;;;;;;;5.60;5.10;;;27.00;99.90;;;;;;5032721;28;20171;-84
2023/06/18 09:47:03;;;;;;;6.38;5.40;;;26.90;99.90;;;;;;5032910;28;20265;-84
2023/06/18 09:49:29;;;;;;;5.28;4.78;;;26.80;99.90;;;;;;5035269;28;20168;-84
2023/06/18 09:51:55;;;;;;;5.53;4.97;;;27.00;99.90;;;;;;5036050;28;20206;-85
2023/06/18 09:54:21;;;;;;;5.47;5.07;;;27.20;99.90;;;;;;5053846;28;20551;-84
2023/06/18 09:57:02;;;;;;;5.20;4.75;;;27.40;95.10;;;;;;5055363;28;20185;-84
2023/06/18 09:59:28;;;;;;;6.80;5.20;;;27.70;84.40;;;;;;5056532;28;20181;-81
2023/06/18 10:01:57;;;;;;;5.55;4.88;;;27.90;75.20;;;;;;5056337;28;20212;-82
2023/06/18 10:04:23;;;;;;;5.03;4.53;;;28.10;69.60;;;;;;5039620;28;20268;-81
2023/06/18 10:07:04;;;;;;;5.40;4.90;;;28.40;60.10;;;;;;5057829;28;20192;-82
2023/06/18 10:09:37;;;;;;;5.55;5.00;;;28.20;49.00;;;;;;5057086;28;20173;-83
2023/06/18 10:12:04;;;;;;;5.75;5.25;;;28.10;42.30;;;;;;5056359;28;20176;-84
2023/06/18 10:14:31;;;;;;;5.40;4.95;;;27.90;40.40;;;;;;5039145;28;20169;-83
2023/06/18 10:17:18;;;;;;;5.15;4.65;;;28.10;41.40;;;;;;5037638;28;20652;-84
2023/06/18 10:19:59;;;;;;;5.95;5.45;;;28.40;43.40;;;;;;5051323;28;20172;-82
2023/06/18 10:22:28;;;;;;;6.20;5.43;;;28.40;39.30;;;;;;5056071;28;20174;-80
2023/06/18 10:25:12;;;;;;;5.30;4.80;;;28.50;33.50;;;;;;5037426;28;20170;-83
2023/06/18 10:27:39;;;;;;;5.93;5.15;;;28.90;31.70;;;;;;5033747;28;20216;-84
2023/06/18 10:30:05;;;;;;;5.95;4.97;;;29.00;28.80;;;;;;5033320;28;20242;-82
2023/06/18 10:32:32;;;;;;;4.97;4.57;;;29.10;25.30;;;;;;5033222;28;20181;-83
2023/06/18 10:35:01;;;;;;;5.22;4.72;;;29.00;19.80;;;;;;5033142;28;20566;-83
2023/06/18 10:37:30;;;;;;;7.18;4.93;;;29.20;18.70;;;;;;5034340;28;20167;-83
2023/06/18 10:39:56;;;;;;;5.90;5.30;;;29.00;16.70;;;;;;5034674;28;20273;-84
2023/06/18 10:42:23;;;;;;;6.00;5.10;;;29.20;15.70;;;;;;5033755;28;20228;-81
2023/06/18 10:44:57;;;;;;;5.43;4.88;;;29.50;15.20;;;;;;5034305;28;20261;-81
2023/06/18 10:47:24;;;;;;;5.57;4.90;;;29.60;13.20;;;;;;5032924;28;20187;-81
2023/06/18 10:50:02;;;;;;;5.40;4.78;;;29.70;11.90;;;;;;5032483;28;20253;-81
2023/06/18 10:52:32;;;;;;;6.32;4.85;;;30.00;11.50;;;;;;5032618;28;20251;-82
2023/06/18 10:55:24;;;;;;;6.18;5.10;;;30.20;5.40;;;;;;5034219;28;20285;-82
2023/06/18 10:57:58;;;;;;;4.90;4.47;;;30.20;1.00;;;;;;5032546;28;20551;-82
2023/06/18 11:00:29;;;;;;;5.25;4.75;;;30.00;1.00;;;;;;5032015;28;20209;-81
2023/06/18 11:03:15;;;;;;;6.10;5.05;;;30.10;1.00;;;;;;5032383;28;20674;-81
2023/06/18 11:05:41;;;;;;;5.30;4.70;;;29.80;1.00;;;;;;5033636;28;20181;-82
2023/06/18 11:08:14;;;;;;;7.22;4.93;;;29.70;1.00;;;;;;5034006;28;20184;-82
2023/06/18 11:10:48;;;;;;;6.93;5.38;;;30.10;1.00;;;;;;5043675;28;20208;-77
2023/06/18 11:13:14;;;;;;;5.45;4.68;;;30.10;1.00;;;;;;5045236;28;20180;-82
2023/06/18 11:15:58;;;;;;;5.60;4.95;;;30.30;1.00;;;;;;5060333;28;20197;-82
2023/06/18 11:18:28;;;;;;;5.68;5.07;;;30.20;1.00;;;;;;5075174;28;20306;-81
2023/06/18 11:20:55;;;;;;;5.13;4.63;;;30.10;8.30;;;;;;5057087;28;20184;-81
2023/06/18 11:23:22;;;;;;;5.85;5.25;;;29.90;1.00;;;;;;5056568;28;20169;-81
2023/06/18 11:25:49;;;;;;;5.20;4.80;;;29.80;1.00;;;;;;5056065;28;20184;-77
2023/06/18 11:28:15;;;;;;;6.05;5.47;;;29.60;1.00;;;;;;5074205;28;20699;-79
2023/06/18 11:30:51;;;;;;;5.20;4.70;;;29.20;1.00;;;;;;5056305;28;20200;-80
2023/06/18 11:33:30;;;;;;;7.68;4.90;;;29.20;1.00;;;;;;5074544;28;20513;-79
2023/06/18 11:36:10;;;;;;;5.25;4.72;;;29.70;1.00;;;;;;5073288;28;20185;-80
2023/06/18 11:38:36;;;;;;;5.03;4.60;;;30.40;1.00;;;;;;5072816;28;20260;-78
2023/06/18 11:41:02;;;;;;;6.05;5.10;;;30.80;1.00;;;;;;5053841;28;20268;-81
2023/06/18 11:43:52;;;;;;;5.63;5.13;;;31.10;1.00;;;;;;5072091;28;20284;-79
2023/06/18 11:46:30;;;;;;;5.60;5.10;;;31.40;1.00;;;;;;5053799;28;20177;-79
2023/06/18 11:48:56;;;;;;;5.90;5.05;;;31.90;1.00;;;;;;5072106;28;20169;-78
2023/06/18 11:51:26;;;;;;;5.18;4.75;;;31.80;1.00;;;;;;5071705;28;20212;-79
2023/06/18 11:53:53;;;;;;;5.90;5.40;;;31.50;1.00;;;;;;5062575;28;20236;-79
2023/06/18 11:56:26;;;;;;;5.63;5.13;;;31.60;1.00;;;;;;5051649;28;20292;-79
2023/06/18 11:58:54;;;;;;;5.70;5.10;;;31.40;1.00;;;;;;5051380;28;20731;-79
2023/06/18 12:01:19;;;;;;;5.60;4.95;;;31.50;1.00;;;;;;5041449;28;20213;-79
2023/06/18 12:03:45;;;;;;;5.53;4.80;;;31.20;1.00;;;;;;5030407;28;20556;-80
2023/06/18 12:06:15;;;;;;;5.40;4.90;;;31.10;1.00;;;;;;5031600;28;20649;-80
2023/06/18 12:08:45;;;;;;;5.15;4.70;;;31.30;1.00;;;;;;5031746;28;20174;-79
2023/06/18 12:11:59;;;;;;;5.20;4.70;;;31.30;1.00;;;;;;5031248;28;20277;-78
2023/06/18 12:14:38;;;;;;;5.97;4.82;;;31.60;1.00;;;;;;5025708;28;20676;-78
2023/06/18 12:17:15;;;;;;;4.88;4.47;;;31.50;1.00;;;;;;5031677;28;20267;-79
2023/06/18 12:19:43;;;;;;;4.97;4.57;;;31.70;1.00;;;;;;5031572;28;20256;-79
2023/06/18 12:22:09;;;;;;;4.85;4.45;;;31.20;1.00;;;;;;5034451;28;20174;-79
2023/06/18 12:24:35;;;;;;;5.43;4.50;;;31.30;1.00;;;;;;5035289;28;20163;-79
2023/06/18 12:27:00;;;;;;;5.35;4.85;;;31.10;1.00;;;;;;5045303;28;20177;-79
2023/06/18 12:29:27;;;;;;;5.07;4.60;;;31.20;1.00;;;;;;5051673;28;20177;-80
2023/06/18 12:32:04;;;;;;;5.07;4.65;;;31.70;1.00;;;;;;5057237;28;20216;-78
2023/06/18 12:34:33;;;;;;;5.38;4.88;;;31.80;1.00;;;;;;5073630;28;20172;-79
2023/06/18 12:36:59;;;;;;;5.65;4.75;;;31.90;1.00;;;;;;5075339;28;20216;-78
2023/06/18 12:39:24;;;;;;;5.40;4.78;;;31.90;1.00;;;;;;5060406;28;20614;-79
2023/06/18 12:41:50;;;;;;;5.38;4.70;;;31.90;1.00;;;;;;5054387;28;20272;-78
2023/06/18 12:44:18;;;;;;;5.43;4.90;;;32.00;1.00;;;;;;5037049;28;20166;-78
2023/06/18 12:46:44;;;;;;;6.30;4.65;;;32.40;1.00;;;;;;5054634;28;20170;-78
2023/06/18 12:49:14;;;;;;;5.30;4.80;;;32.00;1.00;;;;;;5036497;28;20177;-79
2023/06/18 12:51:49;;;;;;;6.97;4.70;;;31.40;1.00;;;;;;5054734;28;20277;-78
2023/06/18 12:54:21;;;;;;;5.50;5.00;;;32.10;1.00;;;;;;5054910;28;20565;-81